Time;durP1;ratioP1;P1;durP2;ratioP2;P2;SDS_P1;SDS_P2;PMS_P1;PMS_P2;Temp;Humidity;BMP_temperature;BMP_pressure;BME280_temperature;BME280_humidity;BME280_pressure;Samples;Min_cycle;Max_cycle;Signal;HPM_P1;HPM_P2
2023/03/21 05:30:32;;;;;;;10.05;3.08;;;11.40;83.80;;;;;;5893814;23;20046;-79
2023/03/21 05:32:58;;;;;;;9.25;3.60;;;11.50;84.20;;;;;;4972989;28;20032;-80
2023/03/21 05:35:24;;;;;;;5.88;3.13;;;11.50;84.10;;;;;;4959929;29;20166;-80
2023/03/21 05:37:50;;;;;;;6.57;2.55;;;11.50;84.10;;;;;;4960755;28;20034;-80
2023/03/21 05:40:15;;;;;;;8.93;3.25;;;11.50;83.90;;;;;;4943538;29;20081;-79
2023/03/21 05:42:41;;;;;;;10.13;3.30;;;11.50;84.10;;;;;;4943481;29;20050;-79
2023/03/21 05:45:07;;;;;;;9.73;3.58;;;11.50;83.90;;;;;;4974172;28;20038;-79
2023/03/21 05:47:33;;;;;;;7.03;3.10;;;11.50;84.10;;;;;;4979753;28;20231;-79
2023/03/21 05:49:58;;;;;;;6.20;3.28;;;11.60;83.90;;;;;;4962516;28;20379;-77
2023/03/21 05:52:24;;;;;;;5.10;2.72;;;11.60;83.80;;;;;;4963848;28;20031;-77
2023/03/21 05:54:50;;;;;;;7.90;3.85;;;11.70;83.80;;;;;;4960571;29;20035;-80
2023/03/21 05:57:18;;;;;;;10.88;3.28;;;11.70;83.80;;;;;;4960266;28;20023;-77
2023/03/21 05:59:43;;;;;;;7.25;3.72;;;11.70;83.80;;;;;;4960376;29;20024;-79
2023/03/21 06:02:09;;;;;;;11.98;4.30;;;11.70;83.90;;;;;;4970756;28;20037;-78
2023/03/21 06:04:35;;;;;;;7.10;3.15;;;11.80;83.80;;;;;;4978990;28;20430;-78
2023/03/21 06:07:00;;;;;;;6.47;3.95;;;11.80;83.90;;;;;;4976927;28;20039;-78
2023/03/21 06:09:26;;;;;;;4.70;3.25;;;11.80;83.90;;;;;;4960497;29;20122;-80
2023/03/21 06:11:55;;;;;;;12.00;4.00;;;11.70;84.10;;;;;;4961105;28;20030;-81
2023/03/21 06:14:22;;;;;;;8.27;4.03;;;11.70;84.10;;;;;;4962525;28;20062;-83
2023/03/21 06:16:47;;;;;;;9.05;3.22;;;11.80;84.30;;;;;;4960545;28;20035;-75
2023/03/21 06:19:13;;;;;;;6.65;3.72;;;11.80;84.30;;;;;;4978342;28;20037;-77
2023/03/21 06:21:39;;;;;;;7.47;3.58;;;11.70;84.50;;;;;;4979379;28;20026;-75
2023/03/21 06:24:05;;;;;;;4.55;2.65;;;11.70;84.50;;;;;;4977443;28;20026;-76
2023/03/21 06:26:31;;;;;;;6.25;3.25;;;11.80;84.60;;;;;;4961953;28;20086;-76
2023/03/21 06:28:56;;;;;;;7.75;3.45;;;11.80;84.60;;;;;;4976615;28;20517;-76
2023/03/21 06:31:24;;;;;;;9.00;4.00;;;11.80;84.60;;;;;;4979045;28;20155;-76
2023/03/21 06:33:50;;;;;;;7.97;3.58;;;11.70;84.90;;;;;;4977032;28;20065;-75
2023/03/21 06:36:16;;;;;;;5.30;3.50;;;11.80;84.90;;;;;;4962858;28;20110;-76
2023/03/21 06:38:42;;;;;;;7.70;3.63;;;11.80;84.90;;;;;;4978020;28;20027;-79
2023/03/21 06:41:08;;;;;;;8.00;4.65;;;11.80;85.00;;;;;;4962470;28;20031;-77
2023/03/21 06:43:34;;;;;;;7.22;3.60;;;11.90;85.00;;;;;;4960055;29;20498;-77
2023/03/21 06:46:00;;;;;;;6.10;3.22;;;11.90;85.00;;;;;;4971873;28;20088;-75
2023/03/21 06:48:26;;;;;;;7.55;4.70;;;11.90;85.10;;;;;;4976495;28;20031;-75
2023/03/21 06:50:52;;;;;;;4.43;3.08;;;11.90;85.10;;;;;;4959401;29;20087;-74
2023/03/21 06:53:23;;;;;;;8.48;4.15;;;11.90;85.10;;;;;;4959663;28;20058;-74
2023/03/21 06:55:55;;;;;;;;;;;12.00;85.10;;;;;;4979384;28;20086;-75
2023/03/21 06:58:21;;;;;;;8.50;4.07;;;12.00;85.00;;;;;;4978272;28;19906;-74
2023/03/21 07:00:47;;;;;;;4.68;3.47;;;12.10;85.00;;;;;;4961308;28;20067;-74
2023/03/21 07:03:14;;;;;;;6.22;3.15;;;12.10;84.90;;;;;;4978810;28;20081;-75
2023/03/21 07:05:40;;;;;;;7.47;3.35;;;12.20;84.90;;;;;;4968446;28;20039;-74
2023/03/21 07:08:10;;;;;;;4.82;2.92;;;12.20;84.80;;;;;;4959619;29;20028;-74
2023/03/21 07:10:42;;;;;;;4.93;3.05;;;12.20;84.80;;;;;;4967150;28;20023;-75
2023/03/21 07:13:08;;;;;;;6.57;3.30;;;12.30;84.60;;;;;;4965212;28;20050;-75
2023/03/21 07:15:36;;;;;;;5.22;2.85;;;12.40;84.50;;;;;;4969403;28;20448;-75
2023/03/21 07:18:03;;;;;;;4.47;2.50;;;12.40;84.50;;;;;;4998058;28;20046;-75
2023/03/21 07:20:29;;;;;;;6.07;2.88;;;12.50;84.50;;;;;;4962054;28;20573;-74
2023/03/21 07:22:55;;;;;;;4.97;3.03;;;12.50;84.30;;;;;;4978387;28;20019;-75
2023/03/21 07:25:21;;;;;;;6.03;2.38;;;12.60;84.40;;;;;;4966779;28;20062;-75
2023/03/21 07:27:47;;;;;;;3.90;2.47;;;12.70;84.20;;;;;;4942047;29;20078;-75
2023/03/21 07:30:13;;;;;;;3.22;2.30;;;12.70;84.10;;;;;;4958958;28;20043;-75
2023/03/21 07:32:39;;;;;;;4.97;2.53;;;12.80;84.00;;;;;;4964996;28;20493;-74
2023/03/21 07:35:07;;;;;;;3.53;2.80;;;12.80;83.80;;;;;;4960607;28;20058;-74
2023/03/21 07:37:33;;;;;;;5.57;2.17;;;13.00;83.70;;;;;;4958925;28;20039;-74
2023/03/21 07:39:59;;;;;;;3.83;2.47;;;13.10;83.30;;;;;;4959148;29;20023;-74
2023/03/21 07:42:25;;;;;;;3.67;2.38;;;13.30;83.10;;;;;;4959078;29;20118;-74
2023/03/21 07:44:51;;;;;;;4.72;2.33;;;13.30;82.90;;;;;;4958817;28;20035;-74
2023/03/21 07:47:17;;;;;;;4.68;2.50;;;13.40;82.80;;;;;;4958889;29;20401;-74
2023/03/21 07:49:42;;;;;;;4.72;2.20;;;13.30;82.80;;;;;;4958249;28;20066;-74
2023/03/21 07:52:08;;;;;;;5.88;2.38;;;13.30;82.90;;;;;;4958934;29;20034;-75
2023/03/21 07:54:34;;;;;;;3.55;1.92;;;13.50;82.70;;;;;;4958564;28;20498;-75
2023/03/21 07:57:00;;;;;;;3.22;2.00;;;14.00;81.70;;;;;;4958781;29;20027;-74
2023/03/21 07:59:25;;;;;;;4.07;2.30;;;13.90;81.50;;;;;;4958724;29;20031;-74
2023/03/21 08:01:51;;;;;;;4.03;2.30;;;13.80;81.50;;;;;;4958435;28;20152;-74
2023/03/21 08:04:17;;;;;;;3.65;2.20;;;14.00;81.20;;;;;;4977512;28;20063;-74
2023/03/21 08:06:42;;;;;;;2.70;1.90;;;14.00;81.10;;;;;;4964333;28;20042;-75
2023/03/21 08:09:08;;;;;;;5.13;2.13;;;14.00;81.10;;;;;;4969096;28;20037;-74
2023/03/21 08:11:33;;;;;;;3.38;2.35;;;14.20;80.90;;;;;;4974114;28;20110;-75
2023/03/21 08:14:00;;;;;;;3.33;2.10;;;14.30;80.40;;;;;;4958480;29;20028;-74
2023/03/21 08:16:26;;;;;;;3.35;1.83;;;14.30;80.60;;;;;;4982160;28;20042;-75
2023/03/21 08:18:52;;;;;;;2.88;1.92;;;14.50;80.30;;;;;;4997002;28;20014;-74
2023/03/21 08:21:17;;;;;;;2.40;1.50;;;15.20;79.50;;;;;;4987227;28;20143;-75
2023/03/21 08:23:44;;;;;;;2.05;1.20;;;16.50;75.80;;;;;;4958247;29;20045;-75
2023/03/21 08:26:09;;;;;;;3.40;1.45;;;16.30;75.40;;;;;;4958209;28;20043;-75
2023/03/21 08:28:38;;;;;;;4.80;1.90;;;16.00;75.30;;;;;;4958227;29;20027;-74
2023/03/21 08:31:08;;;;;;;2.13;1.50;;;15.90;75.60;;;;;;4957981;29;20047;-75
2023/03/21 08:33:33;;;;;;;;;;;15.70;75.80;;;;;;4971585;28;20131;-74
2023/03/21 08:36:00;;;;;;;2.33;1.30;;;15.80;75.90;;;;;;4977362;28;19939;-75
2023/03/21 08:38:28;;;;;;;6.50;1.40;;;16.10;75.40;;;;;;4942561;29;20103;-75
2023/03/21 08:40:55;;;;;;;4.63;1.48;;;15.80;75.60;;;;;;4958093;29;20135;-74
2023/03/21 08:43:21;;;;;;;4.60;2.15;;;16.30;74.70;;;;;;4958171;29;20414;-75
2023/03/21 08:45:47;;;;;;;4.15;1.52;;;16.50;74.10;;;;;;4960236;28;20039;-75
2023/03/21 08:48:13;;;;;;;5.43;1.70;;;18.30;70.70;;;;;;4977126;28;20895;-75
2023/03/21 08:50:38;;;;;;;4.68;1.50;;;18.90;67.40;;;;;;4968985;28;20027;-75
2023/03/21 08:53:04;;;;;;;4.07;1.23;;;20.60;63.30;;;;;;4957975;29;20062;-75
2023/03/21 08:55:31;;;;;;;3.83;1.27;;;21.60;58.90;;;;;;4957820;29;20035;-75
2023/03/21 08:57:58;;;;;;;4.15;1.20;;;22.30;55.00;;;;;;4957839;29;20562;-75
2023/03/21 09:00:24;;;;;;;3.88;1.42;;;22.80;54.30;;;;;;4956924;28;20078;-75
2023/03/21 09:02:50;;;;;;;6.07;1.00;;;23.20;51.30;;;;;;4964814;28;20022;-75
2023/03/21 09:05:17;;;;;;;6.95;1.08;;;23.80;49.70;;;;;;4965310;28;20034;-76
2023/03/21 09:07:44;;;;;;;4.28;1.70;;;24.70;49.30;;;;;;4940794;29;20034;-76
2023/03/21 09:10:12;;;;;;;5.63;1.13;;;24.80;46.90;;;;;;4961736;28;20512;-76
2023/03/21 09:12:39;;;;;;;4.60;1.00;;;24.60;47.00;;;;;;4961298;28;20038;-76
2023/03/21 09:15:07;;;;;;;4.93;1.00;;;23.40;48.90;;;;;;4959871;28;20034;-75
2023/03/21 09:17:32;;;;;;;6.32;1.60;;;22.90;50.20;;;;;;4996074;28;20105;-76
2023/03/21 09:19:59;;;;;;;2.88;1.00;;;22.60;50.40;;;;;;4985164;28;20576;-76
2023/03/21 09:22:26;;;;;;;5.40;1.13;;;23.00;51.00;;;;;;4957355;28;20145;-75
2023/03/21 09:24:52;;;;;;;5.03;0.90;;;22.30;51.50;;;;;;4957480;29;20042;-75
2023/03/21 09:27:21;;;;;;;5.88;1.13;;;21.30;53.50;;;;;;4957584;29;20035;-75
2023/03/21 09:29:48;;;;;;;4.05;0.80;;;20.30;55.20;;;;;;4962784;28;20030;-75
2023/03/21 09:32:16;;;;;;;5.18;1.02;;;19.30;57.20;;;;;;4976738;28;20270;-75
2023/03/21 09:34:42;;;;;;;4.70;0.95;;;18.70;58.50;;;;;;4976532;28;20019;-75
2023/03/21 09:37:12;;;;;;;6.63;1.40;;;18.00;60.60;;;;;;4959505;28;20124;-75
2023/03/21 09:39:43;;;;;;;7.85;1.20;;;17.70;61.90;;;;;;4957386;29;20023;-75
2023/03/21 09:42:31;;;;;;;4.18;1.30;;;17.20;62.70;;;;;;4957199;28;20402;-75
2023/03/21 09:45:09;;;;;;;5.70;1.40;;;16.80;63.60;;;;;;4957274;29;20023;-75
2023/03/21 09:47:52;;;;;;;6.97;1.17;;;16.60;64.10;;;;;;4957126;29;20046;-74
2023/03/21 09:50:26;;;;;;;10.45;1.02;;;16.40;64.30;;;;;;4957017;28;20058;-75
2023/03/21 09:52:57;;;;;;;6.03;1.15;;;16.30;65.00;;;;;;4957266;29;20080;-75
2023/03/21 09:55:25;;;;;;;7.70;1.17;;;16.50;65.30;;;;;;4957163;29;20032;-74
2023/03/21 09:58:06;;;;;;;11.50;2.30;;;16.50;65.20;;;;;;4957165;29;20082;-75
2023/03/21 10:00:38;;;;;;;4.05;1.30;;;16.60;64.80;;;;;;4956928;28;20061;-75
2023/03/21 10:03:28;;;;;;;4.82;1.52;;;16.80;64.40;;;;;;4966470;28;20622;-75
2023/03/21 10:05:57;;;;;;;5.47;1.15;;;17.30;63.30;;;;;;4972245;28;20027;-75
2023/03/21 10:08:29;;;;;;;12.00;1.17;;;17.70;62.90;;;;;;4957187;29;20129;-75
2023/03/21 10:11:01;;;;;;;5.57;1.52;;;17.80;62.10;;;;;;4961789;28;20054;-75
2023/03/21 10:13:38;;;;;;;8.38;1.45;;;18.00;61.70;;;;;;4959869;28;20031;-75
2023/03/21 10:16:14;;;;;;;5.57;1.60;;;18.80;59.80;;;;;;4971308;28;20069;-75
2023/03/21 10:18:41;;;;;;;6.25;1.50;;;19.50;59.10;;;;;;4965336;28;20030;-76
2023/03/21 10:21:19;;;;;;;8.27;1.05;;;20.20;56.70;;;;;;4963051;28;20481;-76
2023/03/21 10:23:45;;;;;;;3.35;0.63;;;20.30;55.80;;;;;;4960590;29;20110;-76
2023/03/21 10:26:11;;;;;;;4.25;1.05;;;20.20;56.20;;;;;;4960523;29;20039;-76
2023/03/21 10:28:40;;;;;;;8.93;1.45;;;19.80;56.10;;;;;;4960299;28;20087;-75
2023/03/21 10:31:09;;;;;;;8.40;1.27;;;19.80;57.10;;;;;;4960254;29;20059;-75
2023/03/21 10:33:38;;;;;;;8.10;1.33;;;19.80;56.70;;;;;;4973703;28;20750;-75
2023/03/21 10:36:25;;;;;;;7.72;1.08;;;19.40;55.70;;;;;;4977121;28;20521;-75
2023/03/21 10:39:11;;;;;;;4.35;1.02;;;18.90;55.20;;;;;;4960199;29;20033;-76
2023/03/21 10:41:39;;;;;;;8.80;1.40;;;18.50;55.90;;;;;;4978745;28;20030;-76
2023/03/21 10:44:15;;;;;;;4.88;1.05;;;18.20;56.10;;;;;;4960080;29;20027;-75
2023/03/21 10:46:52;;;;;;;5.03;1.02;;;18.10;58.10;;;;;;4959981;29;20038;-75
2023/03/21 10:49:20;;;;;;;6.22;0.82;;;18.00;57.70;;;;;;4959978;29;20035;-75
2023/03/21 10:51:49;;;;;;;4.80;1.10;;;17.90;57.90;;;;;;4959820;28;20058;-74
2023/03/21 10:54:18;;;;;;;8.90;1.70;;;17.90;59.70;;;;;;4960055;29;20115;-75
2023/03/21 10:56:56;;;;;;;8.85;1.25;;;18.00;59.50;;;;;;4959615;28;20293;-75
2023/03/21 10:59:24;;;;;;;7.63;1.50;;;18.20;59.30;;;;;;4960024;29;20083;-75
2023/03/21 11:01:51;;;;;;;7.95;1.60;;;18.30;59.10;;;;;;4959732;29;20030;-75
2023/03/21 11:04:21;;;;;;;3.13;0.90;;;18.30;57.50;;;;;;4978727;28;20031;-75
2023/03/21 11:06:56;;;;;;;7.68;1.02;;;18.30;56.40;;;;;;4973288;28;20020;-75
2023/03/21 11:09:41;;;;;;;6.07;1.10;;;18.30;57.50;;;;;;4959746;29;20028;-75
2023/03/21 11:12:15;;;;;;;5.22;1.02;;;18.20;56.00;;;;;;4976240;28;20054;-75
2023/03/21 11:14:47;;;;;;;4.57;1.20;;;18.30;55.80;;;;;;4979023;28;20030;-75
2023/03/21 11:17:15;;;;;;;5.75;1.20;;;18.50;55.00;;;;;;4965673;28;20035;-75
2023/03/21 11:19:49;;;;;;;5.43;1.20;;;18.70;53.80;;;;;;4965365;28;20062;-75
2023/03/21 11:22:17;;;;;;;5.97;1.30;;;18.70;55.00;;;;;;4959266;28;20027;-75
2023/03/21 11:24:56;;;;;;;6.32;1.00;;;18.80;55.10;;;;;;4958759;28;20031;-75
2023/03/21 11:27:23;;;;;;;8.02;1.52;;;18.90;54.60;;;;;;4967010;28;20031;-76
2023/03/21 11:29:50;;;;;;;6.70;1.25;;;19.20;54.60;;;;;;4976670;28;20023;-75
2023/03/21 11:32:37;;;;;;;9.23;1.48;;;19.40;55.50;;;;;;4961811;28;20055;-76
2023/03/21 11:35:17;;;;;;;9.10;1.48;;;19.50;55.10;;;;;;4978436;28;20030;-75
2023/03/21 11:37:46;;;;;;;5.32;1.00;;;19.70;54.30;;;;;;4975605;28;20147;-75
2023/03/21 11:40:23;;;;;;;9.55;1.15;;;19.80;53.90;;;;;;4969589;28;20106;-75
2023/03/21 11:43:00;;;;;;;4.13;0.80;;;19.70;53.80;;;;;;4977667;28;20030;-75
2023/03/21 11:45:32;;;;;;;5.97;1.23;;;19.50;51.30;;;;;;4959064;29;20442;-75
2023/03/21 11:48:00;;;;;;;4.00;0.90;;;19.30;52.10;;;;;;4958818;29;20545;-75
2023/03/21 11:50:34;;;;;;;4.28;1.17;;;19.10;49.30;;;;;;4958769;28;20024;-75
2023/03/21 11:53:27;;;;;;;5.75;1.30;;;19.10;49.80;;;;;;4958849;29;20047;-75
2023/03/21 11:55:55;;;;;;;6.93;1.45;;;19.20;52.10;;;;;;4958802;29;20034;-75
2023/03/21 11:58:35;;;;;;;5.88;1.15;;;19.30;50.30;;;;;;4958803;29;20078;-75
2023/03/21 12:01:13;;;;;;;9.20;1.50;;;19.60;51.50;;;;;;4958475;28;20059;-75
2023/03/21 12:03:51;;;;;;;7.43;1.70;;;19.60;49.70;;;;;;4961726;28;20030;-76
2023/03/21 12:06:33;;;;;;;5.40;1.30;;;19.50;50.00;;;;;;4958703;29;20067;-75
2023/03/21 12:09:17;;;;;;;5.68;1.20;;;19.30;51.20;;;;;;4958663;29;20060;-75
2023/03/21 12:12:28;;;;;;;6.85;1.30;;;19.10;50.80;;;;;;4953968;29;20062;-75
2023/03/21 12:15:33;;;;;;;7.85;1.10;;;19.10;51.50;;;;;;4938663;28;20414;-74
2023/03/21 12:18:17;;;;;;;4.68;1.40;;;19.10;52.30;;;;;;4929238;29;20122;-75
2023/03/21 12:20:59;;;;;;;4.18;1.05;;;19.00;52.20;;;;;;4964697;28;20027;-75
2023/03/21 12:23:27;;;;;;;6.85;1.35;;;18.90;51.80;;;;;;4977283;28;20501;-75
2023/03/21 12:26:02;;;;;;;4.40;1.00;;;18.90;52.00;;;;;;4977659;28;20102;-75
2023/03/21 12:28:52;;;;;;;12.88;2.17;;;19.00;54.30;;;;;;4977515;28;20031;-75
2023/03/21 12:31:36;;;;;;;7.00;1.10;;;19.10;51.90;;;;;;4961596;28;20062;-75
2023/03/21 12:34:26;;;;;;;4.35;0.73;;;19.20;52.10;;;;;;4975117;28;20030;-75
2023/03/21 12:36:58;;;;;;;8.32;1.13;;;19.30;52.60;;;;;;4957997;28;20041;-75
2023/03/21 12:39:33;;;;;;;9.63;1.63;;;19.20;50.80;;;;;;4958158;29;20031;-75
2023/03/21 12:42:23;;;;;;;6.68;1.10;;;19.60;51.60;;;;;;4957785;28;20027;-75
2023/03/21 12:45:14;;;;;;;7.32;1.05;;;19.70;49.40;;;;;;4957984;29;20061;-75
2023/03/21 12:47:44;;;;;;;2.72;0.50;;;19.60;50.40;;;;;;4961537;28;20117;-75
2023/03/21 12:50:26;;;;;;;4.05;0.95;;;19.50;48.80;;;;;;4977210;28;20023;-75
2023/03/21 12:52:57;;;;;;;2.78;0.90;;;19.40;49.80;;;;;;4968052;28;20024;-75
2023/03/21 12:55:30;;;;;;;7.28;0.90;;;19.30;48.50;;;;;;4957871;29;20058;-75
2023/03/21 12:58:17;;;;;;;5.72;1.00;;;19.30;49.80;;;;;;4957826;29;20122;-75
2023/03/21 13:00:56;;;;;;;4.03;0.77;;;19.30;49.90;;;;;;4957652;29;20026;-74
2023/03/21 13:03:25;;;;;;;4.90;1.40;;;19.20;49.80;;;;;;4969454;28;20489;-76
2023/03/21 13:05:57;;;;;;;8.63;1.45;;;19.20;49.70;;;;;;4977070;28;20035;-75
2023/03/21 13:08:45;;;;;;;6.30;0.95;;;19.00;48.80;;;;;;4976949;28;20023;-75
2023/03/21 13:11:16;;;;;;;5.88;1.48;;;18.90;50.30;;;;;;4969935;28;20045;-75
2023/03/21 13:13:59;;;;;;;11.13;1.38;;;18.80;49.60;;;;;;4976833;28;20162;-75
2023/03/21 13:16:31;;;;;;;5.75;1.23;;;18.70;50.00;;;;;;4981068;28;20030;-75
2023/03/21 13:18:59;;;;;;;7.72;1.05;;;18.70;51.30;;;;;;4996067;28;20023;-75
2023/03/21 13:21:43;;;;;;;4.05;0.90;;;18.90;50.70;;;;;;4996301;28;20022;-75
2023/03/21 13:24:46;;;;;;;6.63;1.15;;;19.00;50.60;;;;;;4978949;28;20026;-75
2023/03/21 13:27:24;;;;;;;6.05;1.15;;;19.20;51.60;;;;;;4968993;28;20518;-75
2023/03/21 13:29:56;;;;;;;9.13;1.55;;;19.30;51.10;;;;;;4976330;28;20018;-75
2023/03/21 13:32:29;;;;;;;8.13;1.58;;;19.30;51.80;;;;;;4976684;28;20125;-76
2023/03/21 13:35:00;;;;;;;8.15;1.23;;;19.30;51.80;;;;;;4958990;28;20035;-75
2023/03/21 13:37:32;;;;;;;7.30;1.55;;;19.30;51.70;;;;;;4957333;29;20138;-75
2023/03/21 13:40:09;;;;;;;3.80;1.17;;;19.30;49.30;;;;;;4950909;29;20038;-75
2023/03/21 13:42:43;;;;;;;5.13;0.82;;;19.20;50.00;;;;;;4957400;29;20024;-75
2023/03/21 13:45:10;;;;;;;5.72;1.13;;;19.00;51.10;;;;;;4957120;28;20022;-75
2023/03/21 13:47:51;;;;;;;6.78;0.95;;;19.00;52.00;;;;;;4977644;28;20113;-75
2023/03/21 13:50:16;;;;;;;6.00;1.67;;;19.10;52.70;;;;;;4980424;28;20097;-75
2023/03/21 13:53:02;;;;;;;6.80;1.23;;;19.20;51.70;;;;;;4979776;28;20039;-81
2023/03/21 13:55:30;;;;;;;6.38;1.40;;;19.30;52.20;;;;;;4971458;28;20490;-75
2023/03/21 13:57:56;;;;;;;7.65;1.02;;;19.20;51.50;;;;;;4960883;29;20031;-75
2023/03/21 14:00:32;;;;;;;8.63;1.55;;;19.00;51.60;;;;;;4962337;28;20027;-75
2023/03/21 14:03:12;;;;;;;6.35;1.50;;;19.00;52.50;;;;;;4974830;28;20058;-75
2023/03/21 14:05:38;;;;;;;8.10;2.00;;;19.10;52.40;;;;;;4975218;28;20031;-75
2023/03/21 14:08:07;;;;;;;4.22;1.30;;;19.20;51.90;;;;;;4979889;28;20117;-75
2023/03/21 14:10:43;;;;;;;9.77;1.60;;;19.20;51.30;;;;;;4978700;28;20382;-75
2023/03/21 14:13:15;;;;;;;4.25;1.13;;;19.10;51.20;;;;;;4976690;28;20027;-75
2023/03/21 14:15:56;;;;;;;4.55;0.88;;;19.20;50.30;;;;;;4961190;28;20027;-75
2023/03/21 14:18:25;;;;;;;5.10;1.20;;;19.30;49.40;;;;;;4978700;28;20015;-75
2023/03/21 14:20:57;;;;;;;6.88;1.15;;;19.40;49.50;;;;;;4975735;28;20079;-77
2023/03/21 14:23:23;;;;;;;6.05;1.48;;;19.50;49.40;;;;;;4977415;28;20031;-76
2023/03/21 14:25:50;;;;;;;4.22;1.17;;;19.60;49.20;;;;;;4976393;28;20046;-76
2023/03/21 14:28:22;;;;;;;7.55;1.10;;;19.70;48.80;;;;;;4966217;28;20038;-75
2023/03/21 14:30:55;;;;;;;6.88;1.25;;;19.60;47.40;;;;;;4975479;28;20054;-76
2023/03/21 14:33:36;;;;;;;7.63;1.20;;;19.30;48.70;;;;;;4976054;28;20030;-75
2023/03/21 14:36:25;;;;;;;8.13;0.95;;;19.30;50.30;;;;;;4979084;28;20155;-75
2023/03/21 14:39:00;;;;;;;3.83;0.85;;;19.40;49.20;;;;;;4973168;28;20054;-75
2023/03/21 14:41:28;;;;;;;4.88;0.80;;;19.60;49.70;;;;;;4978350;28;20031;-76
2023/03/21 14:44:24;;;;;;;5.07;0.82;;;19.60;50.20;;;;;;4975607;28;20030;-75
2023/03/21 14:46:52;;;;;;;7.05;1.13;;;19.40;48.20;;;;;;4973532;28;20468;-75
2023/03/21 14:49:25;;;;;;;1.95;0.77;;;19.40;48.10;;;;;;4978489;28;20441;-75
2023/03/21 14:51:54;;;;;;;5.55;0.98;;;19.30;48.50;;;;;;4975072;28;20095;-76
2023/03/21 14:54:21;;;;;;;6.72;1.02;;;19.30;48.30;;;;;;4959790;29;20035;-75
2023/03/21 14:56:50;;;;;;;4.57;0.90;;;19.10;48.10;;;;;;4972735;28;20474;-75
2023/03/21 14:59:21;;;;;;;6.38;1.05;;;19.00;49.30;;;;;;4977541;28;20023;-75
2023/03/21 15:01:49;;;;;;;6.88;1.00;;;18.90;50.10;;;;;;4978135;28;20034;-75
2023/03/21 15:04:16;;;;;;;4.60;0.82;;;19.00;50.10;;;;;;4978446;28;20018;-76
2023/03/21 15:06:56;;;;;;;3.63;0.93;;;18.90;49.00;;;;;;4972958;28;20059;-75
2023/03/21 15:09:26;;;;;;;3.53;0.77;;;19.00;48.70;;;;;;4957847;29;20118;-75
2023/03/21 15:11:53;;;;;;;5.23;1.10;;;19.00;48.30;;;;;;4968375;28;20063;-75
2023/03/21 15:14:33;;;;;;;10.45;1.27;;;19.00;48.40;;;;;;4959375;29;20267;-75
2023/03/21 15:17:02;;;;;;;6.78;1.77;;;19.10;48.70;;;;;;4977615;28;20031;-75
2023/03/21 15:19:32;;;;;;;6.57;1.38;;;19.20;48.50;;;;;;4973454;28;20030;-75
2023/03/21 15:22:21;;;;;;;7.68;1.55;;;19.20;48.70;;;;;;4975230;28;20030;-75
2023/03/21 15:24:53;;;;;;;3.53;1.30;;;19.10;48.90;;;;;;4973159;28;20085;-75
2023/03/21 15:27:23;;;;;;;7.80;1.10;;;18.90;49.10;;;;;;4973403;28;20022;-75
2023/03/21 15:29:53;;;;;;;7.18;1.05;;;18.90;49.00;;;;;;4974950;28;20442;-75
2023/03/21 15:32:25;;;;;;;2.20;0.90;;;18.80;49.30;;;;;;4974379;28;20043;-75
2023/03/21 15:34:55;;;;;;;8.63;1.17;;;18.90;49.20;;;;;;4973156;28;20027;-75
2023/03/21 15:37:24;;;;;;;2.83;0.65;;;18.80;50.00;;;;;;4976729;28;20022;-75
2023/03/21 15:39:51;;;;;;;5.40;1.02;;;18.80;49.50;;;;;;4967746;28;20094;-75
2023/03/21 15:42:36;;;;;;;7.38;1.38;;;18.80;49.30;;;;;;4958512;29;20053;-75
2023/03/21 15:45:12;;;;;;;3.25;0.85;;;18.50;49.90;;;;;;4962103;28;20074;-75
2023/03/21 15:47:46;;;;;;;6.97;1.13;;;18.30;49.70;;;;;;4958705;29;20027;-75
2023/03/21 15:50:33;;;;;;;4.80;1.00;;;18.10;51.00;;;;;;4968645;28;20554;-75
2023/03/21 15:53:01;;;;;;;8.40;1.52;;;18.20;52.00;;;;;;4958531;29;20028;-75
2023/03/21 15:55:37;;;;;;;2.97;0.70;;;18.30;51.90;;;;;;4976880;28;20031;-75
2023/03/21 15:58:08;;;;;;;8.52;1.48;;;18.30;51.40;;;;;;4977829;28;20031;-75
2023/03/21 16:00:42;;;;;;;3.88;1.08;;;18.20;51.00;;;;;;4962089;28;20042;-74
2023/03/21 16:03:35;;;;;;;5.88;1.23;;;18.30;51.10;;;;;;4973605;28;20034;-75
2023/03/21 16:06:16;;;;;;;4.93;0.93;;;18.20;51.40;;;;;;4965074;28;20023;-75
2023/03/21 16:08:47;;;;;;;6.28;0.93;;;18.20;51.80;;;;;;4973187;28;20037;-75
2023/03/21 16:11:26;;;;;;;5.47;0.65;;;18.20;51.80;;;;;;4974485;28;20030;-75
2023/03/21 16:13:53;;;;;;;6.15;1.35;;;18.10;51.50;;;;;;4972038;28;20037;-75
2023/03/21 16:16:22;;;;;;;4.75;1.38;;;18.10;52.60;;;;;;4977109;28;20065;-75
2023/03/21 16:18:48;;;;;;;8.15;1.70;;;18.00;53.40;;;;;;4974015;28;20066;-75
2023/03/21 16:21:17;;;;;;;5.07;1.23;;;18.00;53.70;;;;;;4976243;28;20482;-76
2023/03/21 16:23:43;;;;;;;5.45;1.40;;;17.90;54.60;;;;;;4974463;28;21243;-75
2023/03/21 16:26:17;;;;;;;5.10;1.48;;;17.80;54.70;;;;;;4958264;28;20022;-76
2023/03/21 16:28:43;;;;;;;6.47;1.27;;;17.80;55.00;;;;;;4976144;28;20193;-75
2023/03/21 16:31:20;;;;;;;4.82;1.35;;;17.90;55.60;;;;;;4957147;29;20111;-75
2023/03/21 16:33:47;;;;;;;10.60;1.67;;;18.00;55.70;;;;;;4960459;28;20746;-75
2023/03/21 16:36:16;;;;;;;9.40;1.45;;;18.20;55.00;;;;;;4958980;28;20830;-76
2023/03/21 16:38:42;;;;;;;8.15;1.30;;;18.20;54.90;;;;;;4975143;28;20021;-75
2023/03/21 16:41:10;;;;;;;6.38;1.40;;;18.20;55.30;;;;;;4974370;28;20497;-75
2023/03/21 16:43:41;;;;;;;6.45;1.45;;;18.20;55.60;;;;;;4973046;28;20065;-75
2023/03/21 16:46:12;;;;;;;4.50;1.00;;;18.00;55.20;;;;;;4974133;28;20082;-75
2023/03/21 16:48:38;;;;;;;10.25;2.05;;;17.80;55.60;;;;;;4974703;28;20033;-75
2023/03/21 16:51:04;;;;;;;9.98;1.52;;;17.80;56.20;;;;;;4973878;28;20034;-76
2023/03/21 16:53:30;;;;;;;6.70;1.25;;;17.70;55.60;;;;;;4969326;28;20035;-73
2023/03/21 16:56:01;;;;;;;8.55;1.10;;;17.70;55.90;;;;;;4975909;28;20089;-74
2023/03/21 16:58:27;;;;;;;8.85;1.05;;;17.50;56.30;;;;;;4976946;28;20015;-74
2023/03/21 17:00:53;;;;;;;7.47;1.60;;;17.40;56.20;;;;;;4976322;28;20038;-74
2023/03/21 17:03:20;;;;;;;4.35;0.82;;;17.30;56.60;;;;;;4967951;28;20515;-74
2023/03/21 17:05:46;;;;;;;8.70;1.45;;;17.40;56.70;;;;;;4966657;28;20037;-74
2023/03/21 17:08:17;;;;;;;4.40;1.02;;;17.40;56.80;;;;;;4965949;28;20027;-74
2023/03/21 17:10:43;;;;;;;8.02;1.33;;;17.50;56.60;;;;;;4974536;28;20059;-74
2023/03/21 17:13:09;;;;;;;6.40;1.48;;;17.50;55.80;;;;;;4976137;28;20022;-75
2023/03/21 17:15:35;;;;;;;7.55;2.13;;;17.50;55.50;;;;;;4971900;28;20104;-74
2023/03/21 17:18:01;;;;;;;9.02;1.50;;;17.60;56.20;;;;;;4993277;28;20029;-73
2023/03/21 17:20:33;;;;;;;6.63;1.20;;;17.50;56.70;;;;;;4975651;28;20035;-74
2023/03/21 17:22:59;;;;;;;7.05;1.25;;;17.40;56.70;;;;;;4970183;28;20031;-74
2023/03/21 17:25:26;;;;;;;6.30;1.35;;;17.30;56.80;;;;;;4975965;28;20031;-74
2023/03/21 17:27:52;;;;;;;7.07;1.60;;;17.10;57.50;;;;;;4972931;28;20069;-74
2023/03/21 17:30:27;;;;;;;8.02;1.55;;;16.80;58.30;;;;;;4974290;28;20144;-74
2023/03/21 17:32:53;;;;;;;6.45;1.17;;;16.60;59.60;;;;;;4977014;28;20110;-74
2023/03/21 17:35:21;;;;;;;6.07;2.50;;;16.50;60.10;;;;;;4970894;28;20031;-73
2023/03/21 17:37:49;;;;;;;4.38;1.00;;;16.30;60.20;;;;;;4969565;28;20039;-74
2023/03/21 17:40:20;;;;;;;5.15;1.95;;;16.30;60.90;;;;;;4970460;28;20019;-74
2023/03/21 17:42:46;;;;;;;7.95;1.30;;;16.30;61.00;;;;;;4967226;28;20520;-74
2023/03/21 17:45:12;;;;;;;9.85;1.90;;;16.10;61.50;;;;;;4985836;28;20027;-74
2023/03/21 17:47:38;;;;;;;7.93;1.40;;;15.90;62.10;;;;;;4979190;28;20379;-74
2023/03/21 17:50:05;;;;;;;12.32;1.98;;;15.70;62.70;;;;;;4980042;28;20030;-74
2023/03/21 17:52:31;;;;;;;9.25;1.85;;;15.70;63.00;;;;;;4994979;28;20023;-74
2023/03/21 17:54:56;;;;;;;11.13;2.72;;;15.60;63.50;;;;;;4985772;28;20560;-74
2023/03/21 17:57:22;;;;;;;8.93;1.75;;;15.60;63.80;;;;;;4994667;28;20042;-74
2023/03/21 17:59:47;;;;;;;4.75;1.65;;;15.60;63.90;;;;;;4968460;28;20027;-74
2023/03/21 18:02:13;;;;;;;9.23;1.75;;;15.60;63.70;;;;;;4975362;28;20031;-74
2023/03/21 18:04:39;;;;;;;11.70;1.90;;;15.60;63.80;;;;;;4975507;28;20026;-74
2023/03/21 18:07:05;;;;;;;9.57;1.30;;;15.60;63.90;;;;;;4966131;28;20113;-74
2023/03/21 18:09:31;;;;;;;6.00;1.55;;;15.40;64.50;;;;;;4973783;28;20801;-74
2023/03/21 18:11:57;;;;;;;8.07;2.15;;;15.30;64.80;;;;;;4967857;28;20027;-73
2023/03/21 18:14:23;;;;;;;10.32;1.92;;;15.30;65.10;;;;;;4974538;28;20053;-74
2023/03/21 18:16:51;;;;;;;6.75;1.70;;;15.30;65.30;;;;;;4993018;28;20448;-74
2023/03/21 18:19:16;;;;;;;7.22;1.38;;;15.30;65.50;;;;;;4973660;28;20031;-74
2023/03/21 18:21:42;;;;;;;7.40;1.60;;;15.20;65.80;;;;;;4967276;28;20508;-77
2023/03/21 18:24:08;;;;;;;11.35;1.70;;;15.20;66.00;;;;;;4975232;28;20031;-81
2023/03/21 18:26:34;;;;;;;10.10;2.15;;;15.10;66.50;;;;;;4946315;28;20027;-77
2023/03/21 18:29:00;;;;;;;10.88;1.80;;;15.10;66.60;;;;;;4965252;28;20063;-79
2023/03/21 18:31:26;;;;;;;6.72;1.42;;;15.10;66.50;;;;;;4972900;28;20059;-74
2023/03/21 18:33:51;;;;;;;11.75;1.73;;;15.10;66.60;;;;;;4942722;28;20037;-77